Time;durP1;ratioP1;P1;durP2;ratioP2;P2;SDS_P1;SDS_P2;PMS_P1;PMS_P2;Temp;Humidity;BMP_temperature;BMP_pressure;BME280_temperature;BME280_humidity;BME280_pressure;Samples;Min_cycle;Max_cycle;Signal;HPM_P1;HPM_P2
2021/12/06 00:01:34;;;;;;;45.67;24.33;;;;;;;3.98;63.79;98696.75;7845776;31;37297;-79
2021/12/06 00:05:51;;;;;;;42.60;23.50;;;;;;;4.08;63.80;98691.44;7845758;31;38839;-78
2021/12/06 00:10:09;;;;;;;45.20;23.80;;;;;;;3.91;64.12;98690.75;7845803;31;39947;-78
2021/12/06 00:14:29;;;;;;;39.10;22.40;;;;;;;3.97;64.25;98686.22;7845820;31;36988;-78
2021/12/06 00:18:47;;;;;;;40.88;20.75;;;;;;;4.18;63.46;98684.53;7844870;31;37130;-78
2021/12/06 00:23:03;;;;;;;37.42;21.05;;;;;;;3.88;64.55;98680.47;7846276;31;39235;-78
2021/12/06 00:27:20;;;;;;;47.85;22.40;;;;;;;3.84;64.85;98690.13;7846224;31;39806;-78
2021/12/06 00:31:36;;;;;;;38.58;21.52;;;;;;;4.06;64.33;98690.87;7846088;31;38519;-78
2021/12/06 00:35:56;;;;;;;39.20;20.98;;;;;;;4.12;64.01;98689.87;7845926;31;37962;-78
2021/12/06 00:40:12;;;;;;;35.80;19.85;;;;;;;3.96;64.76;98693.50;7845921;31;39297;-78
2021/12/06 00:44:28;;;;;;;37.85;18.52;;;;;;;4.00;64.72;98693.78;7845640;31;40013;-78
2021/12/06 00:48:44;;;;;;;27.70;16.50;;;;;;;4.26;63.95;98708.31;7845615;31;38750;-78
2021/12/06 00:53:01;;;;;;;25.17;14.82;;;;;;;4.20;64.04;98720.16;7845553;31;37168;-78
2021/12/06 00:57:17;;;;;;;26.37;14.60;;;;;;;4.18;63.95;98720.41;7845434;31;39273;-78
2021/12/06 01:01:34;;;;;;;26.15;14.93;;;;;;;4.32;63.68;98708.09;7844175;31;39651;-79
2021/12/06 01:05:51;;;;;;;24.23;13.95;;;;;;;4.05;64.26;98707.31;7845078;31;38222;-79
2021/12/06 01:10:09;;;;;;;21.08;13.02;;;;;;;4.27;63.74;98731.53;7843936;31;37114;-78
2021/12/06 01:14:25;;;;;;;24.48;13.60;;;;;;;4.23;64.16;98752.03;7845101;31;39301;-78
2021/12/06 01:18:41;;;;;;;22.90;13.48;;;;;;;4.29;63.94;98741.03;7848393;31;40810;-78
2021/12/06 01:23:07;;;;;;;21.15;12.60;;;;;;;4.25;64.10;98736.37;7848700;31;37879;-78
2021/12/06 01:27:41;;;;;;;21.90;13.27;;;;;;;4.29;64.02;98730.22;7847863;31;36817;-78
2021/12/06 01:40:55;;;;;;;24.95;14.55;;;;;;;4.45;63.36;98716.84;7848542;31;37821;-78
2021/12/06 01:45:11;;;;;;;26.25;14.70;;;;;;;4.39;63.49;98713.28;7848448;31;37674;-79
2021/12/06 01:49:31;;;;;;;26.95;15.25;;;;;;;4.07;64.47;98697.94;7848480;31;39778;-78
2021/12/06 01:53:47;;;;;;;27.90;16.12;;;;;;;4.33;63.68;98692.75;7848397;31;39889;-78
2021/12/06 01:58:05;;;;;;;29.70;15.27;;;;;;;4.19;63.96;98713.13;7848232;31;37839;-78
2021/12/06 02:02:23;;;;;;;31.02;15.98;;;;;;;4.37;63.25;98709.25;7848418;31;36223;-78
2021/12/06 02:06:41;;;;;;;31.58;17.35;;;;;;;4.28;63.44;98708.91;7848266;31;39035;-78
2021/12/06 02:11:01;;;;;;;30.85;17.10;;;;;;;4.15;63.56;98715.50;7848207;31;39793;-78
2021/12/06 02:20:01;;;;;;;33.22;17.00;;;;;;;4.00;63.65;98716.22;7848095;31;37139;-79
2021/12/06 02:24:17;;;;;;;31.30;17.87;;;;;;;4.07;63.42;98703.31;7848109;31;39459;-79
2021/12/06 02:28:33;;;;;;;32.72;17.90;;;;;;;4.02;63.38;98719.44;7847480;31;40557;-78
2021/12/06 02:32:50;;;;;;;34.80;18.95;;;;;;;3.83;64.02;98712.75;7847855;31;38590;-78
2021/12/06 02:37:09;;;;;;;32.90;17.20;;;;;;;3.86;64.13;98701.47;7847836;31;36887;-79
2021/12/06 02:41:25;;;;;;;42.10;19.75;;;;;;;3.84;64.23;98700.94;7847914;31;39165;-79
2021/12/06 02:51:13;;;;;;;33.13;17.05;;;;;;;3.61;64.77;98702.84;7847629;31;38472;-79
2021/12/06 02:55:36;;;;;;;44.75;19.62;;;;;;;3.18;66.36;98707.19;7847696;31;37024;-78
2021/12/06 02:59:52;;;;;;;36.10;19.35;;;;;;;3.38;65.46;98712.00;7847707;31;39286;-79
2021/12/06 03:09:27;;;;;;;30.40;18.10;;;;;;;3.73;64.42;98718.88;7847460;31;37800;-79
2021/12/06 03:13:44;;;;;;;40.10;19.05;;;;;;;3.62;65.00;98725.22;7847628;31;37665;-78
2021/12/06 03:18:00;;;;;;;30.45;17.55;;;;;;;3.65;64.90;98728.22;7846995;31;39197;-79
2021/12/06 03:26:48;;;;;;;30.85;17.15;;;;;;;3.69;64.59;98729.38;7684653;32;20091;-76
2021/12/06 03:31:04;;;;;;;31.00;16.90;;;;;;;3.79;64.24;98735.94;7684826;32;37729;-76
2021/12/06 03:35:20;;;;;;;30.65;16.35;;;;;;;3.66;64.68;98734.44;7684881;32;39185;-76
2021/12/06 03:39:42;;;;;;;27.27;15.27;;;;;;;3.57;65.07;98724.09;7683837;32;40925;-76
2021/12/06 03:44:00;;;;;;;;;;;;;;;3.70;64.62;98728.28;7685033;32;37636;-77
2021/12/06 03:48:16;;;;;;;26.67;14.85;;;;;;;3.93;64.04;98731.75;7685130;32;36736;-76
2021/12/06 03:52:32;;;;;;;24.67;13.80;;;;;;;3.72;64.30;98734.22;7684608;32;40100;-76
2021/12/06 03:56:49;;;;;;;28.12;15.35;;;;;;;3.71;64.48;98740.69;7684564;32;40929;-76
2021/12/06 04:01:05;;;;;;;29.15;16.20;;;;;;;3.68;64.36;98751.97;7684348;32;37895;-75
2021/12/06 04:05:22;;;;;;;27.02;14.45;;;;;;;3.72;64.33;98747.69;7684227;32;37852;-77
2021/12/06 04:09:38;;;;;;;24.65;14.18;;;;;;;3.78;64.31;98742.38;7684273;32;39325;-76
2021/12/06 04:13:55;;;;;;;27.80;15.40;;;;;;;3.60;64.98;98738.94;7684113;32;40036;-76
2021/12/06 04:18:11;;;;;;;25.52;14.32;;;;;;;3.85;64.34;98740.31;7684021;32;38388;-76
2021/12/06 04:22:28;;;;;;;24.73;13.75;;;;;;;3.90;63.84;98724.19;7683996;32;37137;-75
2021/12/06 04:26:44;;;;;;;28.25;16.50;;;;;;;3.80;64.26;98741.06;7683714;32;39187;-77
2021/12/06 04:31:01;;;;;;;32.80;16.10;;;;;;;3.47;65.21;98742.03;7683727;32;40852;-76
2021/12/06 04:35:18;;;;;;;30.08;16.37;;;;;;;3.25;65.85;98742.81;7683597;32;38719;-75
2021/12/06 04:39:35;;;;;;;30.45;15.75;;;;;;;3.59;65.11;98740.03;7683584;32;37665;-76
2021/12/06 04:43:51;;;;;;;27.50;16.30;;;;;;;3.90;64.02;98746.56;7683471;32;39931;-76
2021/12/06 04:48:08;;;;;;;29.05;15.80;;;;;;;3.69;64.57;98759.00;7683281;32;39862;-75
2021/12/06 04:52:24;;;;;;;32.05;17.77;;;;;;;3.55;65.17;98736.19;7686080;32;37570;-75
2021/12/06 04:56:45;;;;;;;26.92;17.15;;;;;;;3.73;64.76;98752.03;7686610;32;37612;-76
2021/12/06 05:01:09;;;;;;;30.27;17.20;;;;;;;3.83;64.37;98755.91;7686682;32;40020;-75
2021/12/06 05:05:32;;;;;;;44.90;17.90;;;;;;;3.81;64.25;98750.78;7686475;32;39637;-76
2021/12/06 05:09:48;;;;;;;28.85;16.60;;;;;;;3.41;65.69;98776.16;7686411;32;38405;-76
2021/12/06 05:14:06;;;;;;;31.50;18.08;;;;;;;3.81;64.34;98768.84;7686372;32;37159;-76
2021/12/06 05:18:22;;;;;;;30.35;17.08;;;;;;;3.91;63.91;98775.16;7686483;32;38876;-76
2021/12/06 05:22:39;;;;;;;25.60;15.98;;;;;;;3.88;63.95;98780.22;7686237;32;40049;-75
2021/12/06 05:26:55;;;;;;;28.00;14.90;;;;;;;3.71;64.46;98774.94;7686206;32;37979;-74
2021/12/06 05:31:18;;;;;;;23.98;14.27;;;;;;;3.89;63.85;98784.56;7686285;32;37199;-76
2021/12/06 05:35:34;;;;;;;23.98;14.40;;;;;;;3.59;65.30;98796.63;7686326;32;39045;-77
2021/12/06 05:39:50;;;;;;;22.02;13.82;;;;;;;3.78;64.61;98801.69;7686108;32;40937;-76
2021/12/06 05:44:06;;;;;;;20.30;12.98;;;;;;;3.78;64.73;98785.50;7686017;32;37951;-76
2021/12/06 05:48:23;;;;;;;21.95;12.48;;;;;;;3.69;64.97;98785.97;7685930;32;37209;-77
2021/12/06 05:52:39;;;;;;;19.55;11.32;;;;;;;3.89;64.48;98793.47;7686004;32;39957;-76
2021/12/06 05:56:55;;;;;;;20.27;11.95;;;;;;;3.86;64.35;98790.47;7685990;32;40764;-75
2021/12/06 06:01:12;;;;;;;19.35;11.88;;;;;;;3.78;64.60;98798.97;7685288;32;38616;-76
2021/12/06 06:05:35;;;;;;;18.70;11.40;;;;;;;3.98;63.89;98791.13;7685868;32;37197;-76
2021/12/06 06:09:51;;;;;;;17.87;10.75;;;;;;;3.94;63.98;98785.44;7685944;32;38158;-76
2021/12/06 06:14:07;;;;;;;19.27;11.15;;;;;;;3.82;64.32;98805.53;7685702;32;39946;-75
2021/12/06 06:18:23;;;;;;;16.20;11.12;;;;;;;3.37;66.20;98804.69;7685706;32;37943;-77
2021/12/06 06:22:39;;;;;;;21.12;11.25;;;;;;;3.55;65.64;98817.03;7685493;32;37740;-76
2021/12/06 06:26:55;;;;;;;16.60;10.90;;;;;;;3.41;66.66;98819.28;7685606;32;39450;-76
2021/12/06 06:31:11;;;;;;;17.58;11.43;;;;;;;3.49;66.20;98818.06;7685463;32;40169;-75
2021/12/06 06:35:28;;;;;;;19.75;11.73;;;;;;;3.54;65.99;98820.81;7685520;32;38086;-75
2021/12/06 06:39:44;;;;;;;19.48;12.10;;;;;;;3.51;66.34;98826.69;7685458;32;37158;-76
2021/12/06 06:44:00;;;;;;;21.65;12.75;;;;;;;3.66;65.95;98829.59;7685434;32;40012;-76
2021/12/06 06:48:16;;;;;;;22.67;12.75;;;;;;;3.93;64.92;98840.44;7685361;32;40841;-76
2021/12/06 06:52:33;;;;;;;22.77;13.80;;;;;;;3.97;64.72;98851.56;7685507;32;38057;-75
2021/12/06 06:56:49;;;;;;;21.52;12.95;;;;;;;3.40;66.75;98852.69;7685285;32;37090;-75
2021/12/06 07:01:05;;;;;;;21.20;13.27;;;;;;;3.70;66.03;98854.16;7685237;32;39498;-76
2021/12/06 07:05:22;;;;;;;27.33;16.05;;;;;;;3.68;66.16;98854.41;7685399;32;40252;-75
2021/12/06 07:09:38;;;;;;;25.02;14.75;;;;;;;3.79;65.98;98855.34;7685120;32;37609;-77
2021/12/06 07:13:56;;;;;;;27.70;16.37;;;;;;;4.11;68.09;98868.16;7685071;32;37217;-74
2021/12/06 07:18:12;;;;;;;31.73;17.85;;;;;;;4.39;66.05;98869.00;7684666;32;38999;-74
2021/12/06 07:22:28;;;;;;;32.63;18.02;;;;;;;4.55;66.93;98878.06;7684943;32;40739;-73
2021/12/06 07:26:44;;;;;;;29.58;17.52;;;;;;;4.41;64.04;98878.47;7684600;32;38876;-72
2021/12/06 07:31:01;;;;;;;30.95;18.08;;;;;;;4.47;63.90;98877.47;7684791;32;37915;-75
2021/12/06 07:35:18;;;;;;;29.02;16.70;;;;;;;4.31;63.87;98883.75;7684799;32;40015;-74
2021/12/06 07:39:34;;;;;;;33.35;19.20;;;;;;;4.16;64.32;98889.81;7684682;32;40879;-74
2021/12/06 07:43:50;;;;;;;33.03;18.80;;;;;;;4.29;64.07;98891.28;7684642;32;38753;-75
2021/12/06 07:48:07;;;;;;;37.67;19.90;;;;;;;4.35;64.01;98900.25;7684717;32;37297;-75
2021/12/06 07:52:23;;;;;;;34.53;18.52;;;;;;;4.19;64.55;98901.97;7684606;32;40075;-74
2021/12/06 07:56:41;;;;;;;29.08;16.90;;;;;;;4.09;65.23;98908.88;7684426;32;39959;-71
2021/12/06 08:00:57;;;;;;;36.58;19.75;;;;;;;3.94;65.99;98916.78;7684343;32;37803;-74
2021/12/06 08:09:49;;;;;;;38.38;21.87;;;;;;;4.00;66.32;98926.56;7684279;32;39279;-74
2021/12/06 08:14:06;;;;;;;35.40;20.12;;;;;;;4.04;65.94;98927.69;7684002;32;39992;-74
2021/12/06 08:18:22;;;;;;;47.95;23.42;;;;;;;3.98;66.18;98928.69;7684001;32;37594;-73
2021/12/06 08:22:38;;;;;;;37.95;21.65;;;;;;;4.14;65.77;98927.00;7683847;32;36838;-73
2021/12/06 08:26:54;;;;;;;43.72;23.05;;;;;;;3.99;66.14;98943.00;7683181;32;39767;-74
2021/12/06 08:31:18;;;;;;;42.42;22.45;;;;;;;4.06;65.86;98949.84;7683781;32;39954;-73
2021/12/06 08:35:40;;;;;;;40.40;22.65;;;;;;;4.07;65.57;98948.78;7683629;32;38749;-74
2021/12/06 08:39:56;;;;;;;40.05;21.48;;;;;;;3.61;67.12;98950.00;7683612;32;37720;-74
2021/12/06 08:44:14;;;;;;;44.08;22.33;;;;;;;4.19;65.85;98951.38;7683539;32;39338;-74
2021/12/06 08:48:33;;;;;;;41.40;21.98;;;;;;;4.21;65.59;98959.19;7683406;32;41187;-75
2021/12/06 08:52:52;;;;;;;38.30;20.65;;;;;;;4.20;65.31;98961.06;7683237;32;38838;-75
2021/12/06 08:57:08;;;;;;;38.83;21.95;;;;;;;4.14;65.68;98959.38;7683135;32;36969;-74
2021/12/06 09:01:25;;;;;;;44.05;21.85;;;;;;;3.75;66.59;98979.06;7683185;32;39690;-75
2021/12/06 09:06:04;;;;;;;37.58;19.92;;;;;;;3.65;67.98;98978.09;7682692;32;40273;-74
2021/12/06 09:10:21;;;;;;;36.17;20.70;;;;;;;3.60;68.13;98978.81;7675634;32;38245;-74
2021/12/06 09:14:38;;;;;;;33.95;19.65;;;;;;;3.75;67.84;98981.75;7681728;32;37379;-73
2021/12/06 09:18:54;;;;;;;36.42;19.77;;;;;;;3.95;67.31;98977.75;7681912;32;39771;-74
2021/12/06 09:23:12;;;;;;;33.20;18.85;;;;;;;3.09;70.62;98980.69;7681829;32;40992;-74
2021/12/06 09:27:28;;;;;;;33.00;18.70;;;;;;;3.85;68.39;98973.00;7682285;32;37552;-73
2021/12/06 09:31:45;;;;;;;31.73;18.75;;;;;;;4.03;67.15;98971.09;7681256;32;37848;-73
2021/12/06 09:36:02;;;;;;;34.40;19.12;;;;;;;4.04;67.24;98956.56;7682338;32;39879;-74
2021/12/06 09:40:19;;;;;;;33.45;19.35;;;;;;;4.12;67.23;98959.63;7684820;32;39988;-75
2021/12/06 09:44:35;;;;;;;37.03;19.45;;;;;;;4.23;67.76;98955.19;7685429;32;37966;-74
2021/12/06 09:48:51;;;;;;;39.30;19.45;;;;;;;4.64;66.14;98950.25;7685602;32;37428;-72
2021/12/06 09:53:09;;;;;;;35.33;19.83;;;;;;;4.46;66.23;98939.78;7684749;32;39317;-73
2021/12/06 09:57:25;;;;;;;32.67;19.35;;;;;;;4.66;65.66;98934.63;7685588;32;40962;-72
2021/12/06 10:01:50;;;;;;;34.05;19.42;;;;;;;4.38;67.53;98937.53;7684374;32;38702;-73
2021/12/06 10:06:08;;;;;;;28.77;17.25;;;;;;;4.36;67.41;98940.47;7685575;32;38054;-73
2021/12/06 10:10:25;;;;;;;32.25;19.77;;;;;;;4.59;67.08;98927.78;7684669;32;39241;-74
2021/12/06 10:14:42;;;;;;;33.40;19.12;;;;;;;4.85;66.39;98926.97;7684806;32;40702;-74
2021/12/06 10:18:59;;;;;;;28.30;17.10;;;;;;;5.14;65.72;98912.38;7685119;32;37746;-74
2021/12/06 10:23:16;;;;;;;32.63;17.67;;;;;;;5.29;64.89;98904.37;7684471;32;37892;-73
2021/12/06 10:27:32;;;;;;;27.58;15.93;;;;;;;5.47;64.71;98897.78;7685439;32;39733;-74
2021/12/06 10:31:52;;;;;;;28.33;16.42;;;;;;;5.20;64.95;98895.13;7684347;32;40842;-74
2021/12/06 10:36:13;;;;;;;28.15;15.75;;;;;;;4.70;66.33;98897.13;7654929;32;38064;-73
2021/12/06 10:40:34;;;;;;;27.00;15.65;;;;;;;4.99;66.57;98905.78;7632503;32;36009;-74
2021/12/06 10:44:51;;;;;;;23.17;13.55;;;;;;;4.70;66.67;98907.94;7631485;32;38959;-74
2021/12/06 10:49:11;;;;;;;21.52;13.62;;;;;;;4.81;66.50;98925.87;7630665;32;40793;-72
2021/12/06 10:53:38;;;;;;;21.60;13.27;;;;;;;3.65;70.22;98940.34;7630122;32;38708;-73
2021/12/06 10:58:00;;;;;;;20.98;14.00;;;;;;;4.00;69.01;98941.91;7632607;32;37214;-73
2021/12/06 11:02:16;;;;;;;25.05;14.93;;;;;;;3.87;69.74;98948.50;7631348;32;38939;-72
2021/12/06 11:06:41;;;;;;;25.75;13.85;;;;;;;4.12;69.68;98951.53;7632553;32;40094;-74
2021/12/06 11:11:08;;;;;;;23.60;14.15;;;;;;;4.32;68.94;98956.37;7632643;32;38009;-75
2021/12/06 11:15:24;;;;;;;;;;;;;;;4.74;67.35;98956.84;7632877;32;36811;-74
2021/12/06 11:19:40;;;;;;;29.10;15.82;;;;;;;4.68;67.20;98959.47;7632732;32;39119;-74
2021/12/06 11:24:16;;;;;;;26.80;15.45;;;;;;;4.88;65.74;98968.84;7632118;32;40924;-74
2021/12/06 11:28:33;;;;;;;32.72;15.60;;;;;;;4.99;66.84;98959.00;7632226;32;37620;-74
2021/12/06 11:32:49;;;;;;;25.37;15.02;;;;;;;5.18;66.56;98951.34;7632451;32;37884;-73
2021/12/06 11:37:53;;;;;;;28.33;17.20;;;;;;;5.56;66.05;98944.88;7632177;32;39176;-73
2021/12/06 11:42:09;;;;;;;24.50;13.68;;;;;;;5.41;65.24;98945.56;7576150;33;40649;-73
2021/12/06 11:46:30;;;;;;;25.45;14.90;;;;;;;4.97;65.47;98969.25;7606855;32;38541;-73
2021/12/06 11:51:04;;;;;;;25.08;13.88;;;;;;;5.50;64.47;98981.03;7632008;32;37965;-74
2021/12/06 11:55:20;;;;;;;21.08;14.10;;;;;;;5.77;63.24;98985.59;7632033;32;40031;-75
2021/12/06 11:59:44;;;;;;;23.75;13.62;;;;;;;5.89;63.28;98988.09;7630966;32;40485;-74
2021/12/06 12:04:03;;;;;;;22.85;14.38;;;;;;;6.03;63.73;98991.19;7630771;32;37555;-74
2021/12/06 12:08:19;;;;;;;20.95;13.20;;;;;;;5.98;64.73;98983.84;7629488;32;37855;-71
2021/12/06 12:12:36;;;;;;;22.33;14.40;;;;;;;5.87;64.52;98996.47;7630656;32;39692;-73
2021/12/06 12:16:52;;;;;;;19.85;11.90;;;;;;;5.82;64.45;98999.16;7622158;32;279441;-73
2021/12/06 12:21:09;;;;;;;19.52;12.02;;;;;;;5.93;63.17;98994.63;7630687;32;37974;-73
2021/12/06 12:25:33;;;;;;;19.25;11.20;;;;;;;6.10;63.30;98995.28;7630517;32;37879;-73
2021/12/06 12:29:51;;;;;;;19.20;11.50;;;;;;;6.26;62.92;98992.66;7631273;32;37555;-73
2021/12/06 12:34:07;;;;;;;18.08;11.75;;;;;;;6.23;62.90;98985.06;7630393;32;39881;-71
2021/12/06 12:38:26;;;;;;;17.10;11.02;;;;;;;5.97;64.36;98980.34;7629222;32;37819;-72
2021/12/06 12:42:55;;;;;;;19.92;10.85;;;;;;;6.48;63.06;98973.56;7630546;32;36785;-72
2021/12/06 12:47:29;;;;;;;25.20;14.57;;;;;;;6.04;63.78;98979.28;7630414;32;39987;-71
2021/12/06 12:51:52;;;;;;;15.40;8.70;;;;;;;6.69;64.45;98979.84;7629927;32;39995;-71
2021/12/06 12:56:26;;;;;;;12.55;7.93;;;;;;;6.76;63.21;98966.88;7630231;32;38011;-72
2021/12/06 13:01:08;;;;;;;15.57;7.80;;;;;;;6.72;62.39;98973.91;7629988;32;37707;-72
2021/12/06 13:05:29;;;;;;;12.95;7.90;;;;;;;6.85;61.95;98975.31;7630599;32;39756;-72
2021/12/06 13:09:45;;;;;;;12.45;7.80;;;;;;;7.07;60.55;98975.06;7629753;32;40756;-72
2021/12/06 13:14:02;;;;;;;13.32;7.57;;;;;;;6.80;61.43;98980.72;7633318;32;38494;-72
2021/12/06 13:18:32;;;;;;;15.20;8.77;;;;;;;7.08;61.12;98979.41;7633432;32;37050;-73
2021/12/06 13:22:51;;;;;;;13.20;8.30;;;;;;;7.29;60.46;98974.84;7633042;32;40077;-71
2021/12/06 13:27:17;;;;;;;14.82;8.25;;;;;;;7.22;60.45;98980.50;7632327;32;40039;-72
2021/12/06 13:31:34;;;;;;;12.48;8.00;;;;;;;7.29;60.30;98991.09;7631932;32;37960;-73
2021/12/06 13:36:00;;;;;;;14.45;7.53;;;;;;;7.03;59.54;98991.06;7630266;32;36845;-72
2021/12/06 13:40:19;;;;;;;15.45;8.68;;;;;;;7.18;59.38;98992.19;7629443;32;39231;-71
2021/12/06 13:44:51;;;;;;;11.68;7.47;;;;;;;6.98;60.21;98998.38;7606923;32;39637;-66
2021/12/06 13:49:12;;;;;;;11.32;6.28;;;;;;;7.49;59.98;99001.97;7606478;32;37795;-67
2021/12/06 13:53:34;;;;;;;9.18;6.03;;;;;;;7.62;57.63;99007.94;7606966;32;36932;-67
2021/12/06 13:57:53;;;;;;;12.48;5.93;;;;;;;7.61;57.55;99017.16;7608595;32;39182;-68
2021/12/06 14:02:13;;;;;;;12.43;6.00;;;;;;;7.47;57.23;99009.56;7632881;32;40722;-66
2021/12/06 14:07:01;;;;;;;10.10;6.37;;;;;;;6.94;56.37;99009.72;7632301;32;37719;-67
2021/12/06 14:11:25;;;;;;;11.07;6.70;;;;;;;6.78;58.16;99016.19;7631037;32;37056;-68
2021/12/06 14:20:01;;;;;;;12.55;6.30;;;;;;;6.41;58.62;99024.44;7632487;32;40851;-67
2021/12/06 14:24:17;;;;;;;13.50;6.82;;;;;;;6.08;59.12;99023.69;7632183;32;37634;-68
2021/12/06 14:28:37;;;;;;;10.90;6.78;;;;;;;6.30;58.77;99032.50;7631922;32;37034;-65
2021/12/06 14:32:58;;;;;;;13.80;7.60;;;;;;;6.19;59.00;99036.19;7633054;32;39232;-66
2021/12/06 14:37:17;;;;;;;14.20;7.32;;;;;;;6.37;58.02;99043.91;7632323;32;39692;-66
2021/12/06 14:41:33;;;;;;;14.65;8.18;;;;;;;5.98;58.59;99059.62;7632395;32;37821;-66
2021/12/06 14:45:49;;;;;;;15.77;8.52;;;;;;;5.98;58.10;99063.13;7632444;32;36991;-66
2021/12/06 14:50:38;;;;;;;15.57;8.40;;;;;;;5.76;58.68;99065.91;7631493;32;39218;-65
2021/12/06 14:59:43;;;;;;;16.25;10.15;;;;;;;5.82;58.43;99074.88;7631477;32;38510;-66
2021/12/06 15:04:13;;;;;;;19.65;10.38;;;;;;;5.55;59.05;99086.53;7606439;32;37186;-67
2021/12/06 15:08:32;;;;;;;15.25;9.52;;;;;;;5.57;59.22;99094.37;7604778;32;39307;-66
2021/12/06 15:12:52;;;;;;;18.73;10.23;;;;;;;5.52;60.25;99092.47;7605534;32;40002;-67
2021/12/06 15:17:12;;;;;;;21.15;12.18;;;;;;;5.61;59.31;99090.94;7606104;32;36698;-66
2021/12/06 15:21:31;;;;;;;22.90;11.05;;;;;;;5.31;60.63;99090.62;7605745;32;37044;-67
2021/12/06 15:25:52;;;;;;;19.17;11.80;;;;;;;5.62;59.06;99097.97;7605836;32;39730;-70
2021/12/06 15:30:15;;;;;;;17.35;11.23;;;;;;;5.47;59.22;99103.25;7605255;32;40100;-71
2021/12/06 15:34:33;;;;;;;;;;;;;;;5.51;58.76;99101.66;7604937;32;38683;-71
2021/12/06 15:38:55;;;;;;;15.65;10.13;;;;;;;5.42;59.27;99103.19;7606165;32;36685;-71
2021/12/06 15:43:12;;;;;;;21.55;11.38;;;;;;;5.43;58.71;99099.41;7605451;32;40058;-71
2021/12/06 15:47:37;;;;;;;17.45;10.50;;;;;;;5.14;60.01;99099.66;7609054;32;39699;-71
2021/12/06 15:51:58;;;;;;;16.85;11.18;;;;;;;5.25;59.55;99104.09;7631250;32;38786;-71
2021/12/06 15:56:36;;;;;;;21.20;11.30;;;;;;;4.75;60.83;99115.91;7631631;32;37289;-71
2021/12/06 16:00:58;;;;;;;19.25;11.82;;;;;;;5.18;59.62;99111.56;7631958;32;38815;-71
2021/12/06 16:05:24;;;;;;;24.17;13.02;;;;;;;4.62;61.22;99116.25;7631427;32;40701;-70
2021/12/06 16:09:41;;;;;;;16.20;10.82;;;;;;;4.75;60.62;99118.59;7631358;32;37800;-70
2021/12/06 16:13:58;;;;;;;17.30;10.98;;;;;;;4.95;59.75;99126.16;7630521;32;37831;-70
2021/12/06 16:18:21;;;;;;;19.02;11.12;;;;;;;4.98;59.34;99131.03;7631390;32;39975;-70
2021/12/06 16:22:54;;;;;;;30.40;13.95;;;;;;;4.56;61.10;99136.16;7631178;32;39878;-70
2021/12/06 16:27:14;;;;;;;23.58;11.57;;;;;;;4.96;59.49;99127.78;7630260;32;38683;-69
2021/12/06 16:31:33;;;;;;;20.67;11.98;;;;;;;4.69;59.83;99142.03;7628524;32;37065;-70
2021/12/06 16:35:49;;;;;;;20.00;11.57;;;;;;;4.48;59.55;99159.81;7629049;32;38154;-70
2021/12/06 16:40:06;;;;;;;19.62;11.63;;;;;;;4.49;59.10;99166.84;7630129;32;40862;-70
2021/12/06 16:44:34;;;;;;;22.17;12.32;;;;;;;4.52;58.87;99176.34;7629460;32;37909;-70
2021/12/06 16:48:54;;;;;;;25.02;13.38;;;;;;;4.08;59.87;99181.56;7631486;32;37142;-69
2021/12/06 16:53:14;;;;;;;25.60;13.50;;;;;;;4.20;59.78;99193.09;7633765;32;39979;-70
2021/12/06 16:57:45;;;;;;;23.45;14.23;;;;;;;3.72;61.09;99211.41;7633429;32;40747;-71
2021/12/06 17:02:14;;;;;;;26.12;15.13;;;;;;;3.58;61.56;99210.88;7632925;32;37860;-70
2021/12/06 17:06:31;;;;;;;24.10;14.23;;;;;;;3.21;62.37;99221.19;7633129;32;37041;-70
2021/12/06 17:11:13;;;;;;;25.75;13.48;;;;;;;3.16;62.93;99231.84;7632915;32;39373;-70
2021/12/06 17:15:38;;;;;;;21.30;12.13;;;;;;;2.92;63.79;99233.75;7633053;32;39998;-70
2021/12/06 17:19:54;;;;;;;22.35;13.20;;;;;;;2.51;64.82;99238.19;7632788;32;37853;-70
2021/12/06 17:24:12;;;;;;;27.95;13.73;;;;;;;2.90;63.87;99242.06;7632655;32;38091;-70
2021/12/06 17:28:32;;;;;;;25.92;14.23;;;;;;;3.25;62.65;99241.19;7632644;32;38883;-70
2021/12/06 17:32:57;;;;;;;25.37;13.73;;;;;;;2.95;62.79;99250.25;7632998;32;40197;-70
2021/12/06 17:37:13;;;;;;;26.70;15.77;;;;;;;2.76;63.20;99251.41;7632378;32;38055;-69
2021/12/06 17:41:29;;;;;;;27.10;15.35;;;;;;;2.40;64.34;99239.81;7632544;32;37817;-70
2021/12/06 17:45:46;;;;;;;27.08;13.98;;;;;;;2.17;64.35;99245.97;7632685;32;39412;-70
2021/12/06 17:50:02;;;;;;;27.73;14.73;;;;;;;2.10;65.23;99246.03;7631566;32;39880;-70
2021/12/06 17:54:23;;;;;;;28.58;15.75;;;;;;;2.32;64.50;99237.47;7633192;32;37885;-70
2021/12/06 17:58:54;;;;;;;24.27;13.60;;;;;;;2.02;65.80;99247.22;7623100;32;37097;-71
2021/12/06 18:03:11;;;;;;;29.67;14.55;;;;;;;2.21;64.52;99250.66;7618822;32;39955;-70
2021/12/06 18:07:27;;;;;;;27.80;16.35;;;;;;;2.36;64.24;99258.31;7612328;32;39744;-70
2021/12/06 18:11:45;;;;;;;30.05;15.65;;;;;;;2.32;64.44;99250.91;7606646;32;38670;-70
2021/12/06 18:16:02;;;;;;;29.63;16.10;;;;;;;2.45;63.85;99256.09;7606781;32;36116;-70
2021/12/06 18:20:18;;;;;;;30.25;17.33;;;;;;;2.40;63.83;99253.28;7606654;32;39197;-70
2021/12/06 18:24:34;;;;;;;27.27;15.82;;;;;;;2.35;63.90;99253.97;7606486;32;39637;-71
2021/12/06 18:28:50;;;;;;;25.17;14.10;;;;;;;2.43;63.54;99263.56;7605877;32;37607;-70
2021/12/06 18:33:08;;;;;;;24.42;13.73;;;;;;;2.40;63.96;99270.22;7612292;32;37153;-70
2021/12/06 18:37:24;;;;;;;24.80;14.23;;;;;;;2.32;63.54;99269.75;7631140;32;39756;-68
2021/12/06 18:41:40;;;;;;;24.25;15.10;;;;;;;2.49;63.25;99270.72;7632323;32;39606;-69
2021/12/06 18:45:57;;;;;;;27.92;16.67;;;;;;;2.12;64.53;99262.81;7631365;32;38882;-70
2021/12/06 18:50:13;;;;;;;25.17;14.57;;;;;;;2.39;63.45;99267.75;7630959;32;37905;-70
2021/12/06 18:54:29;;;;;;;28.00;15.85;;;;;;;2.55;62.08;99269.78;7632364;32;38943;-70
2021/12/06 18:58:45;;;;;;;25.40;14.63;;;;;;;2.12;64.07;99268.19;7631945;32;39960;-70
2021/12/06 19:03:01;;;;;;;21.50;13.90;;;;;;;2.16;63.56;99272.03;7632041;32;38721;-70
2021/12/06 19:07:18;;;;;;;23.52;13.15;;;;;;;2.09;64.46;99268.63;7631894;32;38423;-69
2021/12/06 19:11:34;;;;;;;26.10;14.63;;;;;;;2.29;63.23;99267.50;7631798;32;39266;-69
2021/12/06 19:16:05;;;;;;;26.35;15.60;;;;;;;1.66;65.42;99269.63;7632258;32;38655;-69
2021/12/06 19:20:25;;;;;;;26.98;15.55;;;;;;;2.05;63.55;99273.66;7631520;32;37866;-69
2021/12/06 19:24:42;;;;;;;27.67;14.80;;;;;;;1.75;64.36;99278.19;7631831;32;37943;-69
2021/12/06 19:28:59;;;;;;;29.20;15.20;;;;;;;1.67;65.41;99271.25;7631594;32;39251;-68
2021/12/06 19:33:15;;;;;;;23.02;13.88;;;;;;;2.19;63.82;99268.91;7641495;32;39977;-69
2021/12/06 19:37:31;;;;;;;27.90;14.40;;;;;;;2.12;63.29;99272.72;7657822;32;38695;-69
2021/12/06 19:41:47;;;;;;;25.85;15.15;;;;;;;1.59;64.11;99266.22;7654206;32;37853;-69
2021/12/06 19:46:05;;;;;;;29.02;14.40;;;;;;;1.78;64.62;99267.00;7631731;32;39278;-70
2021/12/06 19:50:23;;;;;;;26.15;13.82;;;;;;;2.31;62.36;99265.41;7631058;32;40969;-70
2021/12/06 19:54:39;;;;;;;26.35;14.63;;;;;;;1.69;64.62;99263.78;7649651;32;37997;-70
2021/12/06 19:58:56;;;;;;;24.95;13.77;;;;;;;1.88;64.23;99268.09;7657281;32;37124;-70
2021/12/06 20:03:13;;;;;;;23.65;13.05;;;;;;;1.81;64.18;99264.66;7658040;32;38286;-70
2021/12/06 20:07:30;;;;;;;31.20;15.82;;;;;;;1.77;64.01;99274.22;7641306;32;40764;-69
2021/12/06 20:11:46;;;;;;;28.12;14.38;;;;;;;1.96;63.75;99275.00;7657142;32;38650;-69
2021/12/06 20:16:03;;;;;;;27.30;14.68;;;;;;;1.76;64.34;99279.81;7657667;32;37617;-69
2021/12/06 20:20:19;;;;;;;26.35;14.40;;;;;;;1.74;64.58;99279.22;7640154;32;39220;-69
2021/12/06 20:24:37;;;;;;;23.40;14.27;;;;;;;1.76;64.73;99275.28;7656513;32;39994;-70
2021/12/06 20:28:56;;;;;;;24.95;14.87;;;;;;;1.14;65.92;99280.75;7637596;32;37194;-70
2021/12/06 20:33:14;;;;;;;26.15;14.18;;;;;;;1.62;65.09;99282.69;7628192;32;37197;-70
2021/12/06 20:37:30;;;;;;;30.27;15.52;;;;;;;1.62;64.37;99271.09;7626868;32;38424;-69
2021/12/06 20:41:46;;;;;;;22.75;13.40;;;;;;;1.38;65.41;99270.16;7628255;32;40746;-68
2021/12/06 20:46:04;;;;;;;29.37;14.80;;;;;;;1.81;63.61;99267.34;7628240;32;37813;-70
2021/12/06 20:50:22;;;;;;;29.65;15.30;;;;;;;1.55;64.07;99262.31;7627837;32;38106;-69